sensor_id;sensor_type;location;lat;lon;timestamp;temperature;humidity
18365;DHT22;9309;52.126;11.616;2023-09-19T00:00:38;19.20;66.10
18365;DHT22;9309;52.126;11.616;2023-09-19T00:03:07;19.10;66.30
18365;DHT22;9309;52.126;11.616;2023-09-19T00:05:35;19.00;66.10
18365;DHT22;9309;52.126;11.616;2023-09-19T00:08:03;19.00;66.20
18365;DHT22;9309;52.126;11.616;2023-09-19T00:10:31;18.90;65.70
18365;DHT22;9309;52.126;11.616;2023-09-19T00:13:00;18.80;65.60
18365;DHT22;9309;52.126;11.616;2023-09-19T00:15:31;18.60;65.70
18365;DHT22;9309;52.126;11.616;2023-09-19T00:18:03;18.50;66.20
18365;DHT22;9309;52.126;11.616;2023-09-19T00:20:31;18.60;65.50
18365;DHT22;9309;52.126;11.616;2023-09-19T00:23:01;18.60;65.80
18365;DHT22;9309;52.126;11.616;2023-09-19T00:25:34;18.50;65.80
18365;DHT22;9309;52.126;11.616;2023-09-19T00:28:01;18.50;65.90
18365;DHT22;9309;52.126;11.616;2023-09-19T00:30:28;18.50;66.10
18365;DHT22;9309;52.126;11.616;2023-09-19T00:32:54;18.40;66.40
18365;DHT22;9309;52.126;11.616;2023-09-19T00:35:22;18.30;66.80
18365;DHT22;9309;52.126;11.616;2023-09-19T00:37:50;18.20;67.40
18365;DHT22;9309;52.126;11.616;2023-09-19T00:40:17;18.10;67.60
18365;DHT22;9309;52.126;11.616;2023-09-19T00:42:44;18.10;67.60
18365;DHT22;9309;52.126;11.616;2023-09-19T00:45:12;18.00;68.00
18365;DHT22;9309;52.126;11.616;2023-09-19T00:47:38;18.00;68.30
18365;DHT22;9309;52.126;11.616;2023-09-19T00:50:06;17.90;68.60
18365;DHT22;9309;52.126;11.616;2023-09-19T00:52:34;17.90;68.70
18365;DHT22;9309;52.126;11.616;2023-09-19T00:55:02;17.80;68.80
18365;DHT22;9309;52.126;11.616;2023-09-19T00:57:30;17.80;69.10
18365;DHT22;9309;52.126;11.616;2023-09-19T00:59:59;17.80;68.80
18365;DHT22;9309;52.126;11.616;2023-09-19T01:02:30;17.90;68.80
18365;DHT22;9309;52.126;11.616;2023-09-19T01:04:57;17.80;69.30
18365;DHT22;9309;52.126;11.616;2023-09-19T01:07:24;17.90;68.70
18365;DHT22;9309;52.126;11.616;2023-09-19T01:09:50;17.90;69.20
18365;DHT22;9309;52.126;11.616;2023-09-19T01:12:30;17.90;69.00
18365;DHT22;9309;52.126;11.616;2023-09-19T01:15:01;17.90;69.20
18365;DHT22;9309;52.126;11.616;2023-09-19T01:17:32;17.80;69.50
18365;DHT22;9309;52.126;11.616;2023-09-19T01:20:03;17.80;69.50
18365;DHT22;9309;52.126;11.616;2023-09-19T01:22:37;17.80;69.90
18365;DHT22;9309;52.126;11.616;2023-09-19T01:25:15;17.80;69.90
18365;DHT22;9309;52.126;11.616;2023-09-19T01:27:53;17.80;69.90
18365;DHT22;9309;52.126;11.616;2023-09-19T01:30:28;17.70;70.40
18365;DHT22;9309;52.126;11.616;2023-09-19T01:32:58;17.70;70.60
18365;DHT22;9309;52.126;11.616;2023-09-19T01:35:25;17.60;70.70
18365;DHT22;9309;52.126;11.616;2023-09-19T01:37:52;17.60;70.90
18365;DHT22;9309;52.126;11.616;2023-09-19T01:40:19;17.50;71.20
18365;DHT22;9309;52.126;11.616;2023-09-19T01:42:49;17.50;71.20
18365;DHT22;9309;52.126;11.616;2023-09-19T01:45:24;17.40;71.70
18365;DHT22;9309;52.126;11.616;2023-09-19T01:47:54;17.30;71.70
18365;DHT22;9309;52.126;11.616;2023-09-19T01:50:24;17.30;71.70
18365;DHT22;9309;52.126;11.616;2023-09-19T01:52:57;17.30;71.70
18365;DHT22;9309;52.126;11.616;2023-09-19T01:55:26;17.50;70.90
18365;DHT22;9309;52.126;11.616;2023-09-19T01:57:57;17.50;70.90
18365;DHT22;9309;52.126;11.616;2023-09-19T02:00:25;17.50;70.90
18365;DHT22;9309;52.126;11.616;2023-09-19T02:02:53;17.50;70.90
18365;DHT22;9309;52.126;11.616;2023-09-19T02:05:22;17.60;70.70
18365;DHT22;9309;52.126;11.616;2023-09-19T02:07:51;17.50;70.80
18365;DHT22;9309;52.126;11.616;2023-09-19T02:10:18;17.60;70.60
18365;DHT22;9309;52.126;11.616;2023-09-19T02:12:45;17.70;70.30
18365;DHT22;9309;52.126;11.616;2023-09-19T02:15:13;17.70;70.10
18365;DHT22;9309;52.126;11.616;2023-09-19T02:17:41;17.70;70.10
18365;DHT22;9309;52.126;11.616;2023-09-19T02:20:09;17.60;70.30
18365;DHT22;9309;52.126;11.616;2023-09-19T02:22:40;17.60;70.30
18365;DHT22;9309;52.126;11.616;2023-09-19T02:25:07;17.60;70.40
18365;DHT22;9309;52.126;11.616;2023-09-19T02:27:35;17.50;70.60
18365;DHT22;9309;52.126;11.616;2023-09-19T02:30:03;17.50;70.50
18365;DHT22;9309;52.126;11.616;2023-09-19T02:32:29;17.50;70.50
18365;DHT22;9309;52.126;11.616;2023-09-19T02:34:56;17.50;70.80
18365;DHT22;9309;52.126;11.616;2023-09-19T02:37:25;17.50;70.70
18365;DHT22;9309;52.126;11.616;2023-09-19T02:39:52;17.50;71.00
18365;DHT22;9309;52.126;11.616;2023-09-19T02:42:18;17.50;71.10
18365;DHT22;9309;52.126;11.616;2023-09-19T02:44:45;17.50;70.80
18365;DHT22;9309;52.126;11.616;2023-09-19T02:47:13;17.30;71.20
18365;DHT22;9309;52.126;11.616;2023-09-19T02:49:42;17.30;71.30
18365;DHT22;9309;52.126;11.616;2023-09-19T02:52:09;17.30;71.20
18365;DHT22;9309;52.126;11.616;2023-09-19T02:54:38;17.30;71.50
18365;DHT22;9309;52.126;11.616;2023-09-19T02:57:05;17.40;71.20
18365;DHT22;9309;52.126;11.616;2023-09-19T02:59:33;17.30;71.50
18365;DHT22;9309;52.126;11.616;2023-09-19T03:02:02;17.20;71.90
18365;DHT22;9309;52.126;11.616;2023-09-19T03:04:30;17.20;71.70
18365;DHT22;9309;52.126;11.616;2023-09-19T03:06:56;17.20;71.40
18365;DHT22;9309;52.126;11.616;2023-09-19T03:09:26;17.10;71.80
18365;DHT22;9309;52.126;11.616;2023-09-19T03:11:54;17.10;72.00
18365;DHT22;9309;52.126;11.616;2023-09-19T03:14:21;17.00;72.20
18365;DHT22;9309;52.126;11.616;2023-09-19T03:16:49;17.00;72.00
18365;DHT22;9309;52.126;11.616;2023-09-19T03:19:17;17.10;71.60
18365;DHT22;9309;52.126;11.616;2023-09-19T03:21:46;17.00;71.40
18365;DHT22;9309;52.126;11.616;2023-09-19T03:24:15;16.90;71.60
18365;DHT22;9309;52.126;11.616;2023-09-19T03:26:41;17.00;71.70
18365;DHT22;9309;52.126;11.616;2023-09-19T03:29:10;17.00;71.30
18365;DHT22;9309;52.126;11.616;2023-09-19T03:31:37;16.90;71.80
18365;DHT22;9309;52.126;11.616;2023-09-19T03:34:07;16.80;71.90
18365;DHT22;9309;52.126;11.616;2023-09-19T03:36:34;16.90;71.50
18365;DHT22;9309;52.126;11.616;2023-09-19T03:39:01;16.80;71.60
18365;DHT22;9309;52.126;11.616;2023-09-19T03:41:30;16.80;71.60
18365;DHT22;9309;52.126;11.616;2023-09-19T03:43:57;16.80;71.60
18365;DHT22;9309;52.126;11.616;2023-09-19T03:46:25;16.80;71.60
18365;DHT22;9309;52.126;11.616;2023-09-19T03:48:52;16.70;71.90
18365;DHT22;9309;52.126;11.616;2023-09-19T03:51:20;16.80;71.80
18365;DHT22;9309;52.126;11.616;2023-09-19T03:53:46;16.70;72.00
18365;DHT22;9309;52.126;11.616;2023-09-19T03:56:14;16.70;72.00
18365;DHT22;9309;52.126;11.616;2023-09-19T03:58:41;16.70;72.00
18365;DHT22;9309;52.126;11.616;2023-09-19T04:01:07;16.60;72.40
18365;DHT22;9309;52.126;11.616;2023-09-19T04:03:35;16.60;72.60
18365;DHT22;9309;52.126;11.616;2023-09-19T04:06:11;16.60;72.70
18365;DHT22;9309;52.126;11.616;2023-09-19T04:08:38;16.50;73.00
18365;DHT22;9309;52.126;11.616;2023-09-19T04:11:05;16.50;73.00
18365;DHT22;9309;52.126;11.616;2023-09-19T04:13:31;16.40;73.20
18365;DHT22;9309;52.126;11.616;2023-09-19T04:15:58;16.40;73.20
18365;DHT22;9309;52.126;11.616;2023-09-19T04:18:25;16.50;73.20
18365;DHT22;9309;52.126;11.616;2023-09-19T04:20:53;16.40;72.90
18365;DHT22;9309;52.126;11.616;2023-09-19T04:23:21;16.30;73.20
18365;DHT22;9309;52.126;11.616;2023-09-19T04:25:48;16.40;73.10
18365;DHT22;9309;52.126;11.616;2023-09-19T04:28:14;16.40;73.00
18365;DHT22;9309;52.126;11.616;2023-09-19T04:30:42;16.30;73.00
18365;DHT22;9309;52.126;11.616;2023-09-19T04:33:09;16.40;72.90
18365;DHT22;9309;52.126;11.616;2023-09-19T04:35:35;16.30;73.10
18365;DHT22;9309;52.126;11.616;2023-09-19T04:38:05;16.40;72.80
18365;DHT22;9309;52.126;11.616;2023-09-19T04:40:32;16.40;72.30
18365;DHT22;9309;52.126;11.616;2023-09-19T04:42:59;16.30;72.20
18365;DHT22;9309;52.126;11.616;2023-09-19T04:45:26;16.30;72.00
18365;DHT22;9309;52.126;11.616;2023-09-19T04:47:53;16.40;71.80
18365;DHT22;9309;52.126;11.616;2023-09-19T04:50:20;16.40;71.60
18365;DHT22;9309;52.126;11.616;2023-09-19T04:52:49;16.30;71.80
18365;DHT22;9309;52.126;11.616;2023-09-19T04:55:17;16.30;71.30
18365;DHT22;9309;52.126;11.616;2023-09-19T04:57:44;16.40;71.30
18365;DHT22;9309;52.126;11.616;2023-09-19T05:00:12;16.30;71.10
18365;DHT22;9309;52.126;11.616;2023-09-19T05:02:40;16.30;70.90
18365;DHT22;9309;52.126;11.616;2023-09-19T05:05:07;16.30;71.00
18365;DHT22;9309;52.126;11.616;2023-09-19T05:07:35;16.30;71.00
18365;DHT22;9309;52.126;11.616;2023-09-19T05:10:02;16.30;71.10
18365;DHT22;9309;52.126;11.616;2023-09-19T05:12:32;16.20;71.10
18365;DHT22;9309;52.126;11.616;2023-09-19T05:14:59;16.20;71.30
18365;DHT22;9309;52.126;11.616;2023-09-19T05:17:26;16.20;71.40
18365;DHT22;9309;52.126;11.616;2023-09-19T05:19:53;16.10;71.90
18365;DHT22;9309;52.126;11.616;2023-09-19T05:22:19;16.10;72.00
18365;DHT22;9309;52.126;11.616;2023-09-19T05:24:46;16.10;71.80
18365;DHT22;9309;52.126;11.616;2023-09-19T05:27:13;16.00;71.90
18365;DHT22;9309;52.126;11.616;2023-09-19T05:29:43;16.00;71.90
18365;DHT22;9309;52.126;11.616;2023-09-19T05:32:10;16.00;72.00
18365;DHT22;9309;52.126;11.616;2023-09-19T05:34:36;16.00;71.80
18365;DHT22;9309;52.126;11.616;2023-09-19T05:37:03;16.10;70.80
18365;DHT22;9309;52.126;11.616;2023-09-19T05:39:32;16.10;70.40
18365;DHT22;9309;52.126;11.616;2023-09-19T05:41:59;16.20;70.00
18365;DHT22;9309;52.126;11.616;2023-09-19T05:44:26;16.20;69.90
18365;DHT22;9309;52.126;11.616;2023-09-19T05:46:54;16.30;68.80
18365;DHT22;9309;52.126;11.616;2023-09-19T05:49:22;16.40;68.20
18365;DHT22;9309;52.126;11.616;2023-09-19T05:51:49;16.30;68.50
18365;DHT22;9309;52.126;11.616;2023-09-19T05:54:19;16.40;67.80
18365;DHT22;9309;52.126;11.616;2023-09-19T05:56:46;16.40;67.60
18365;DHT22;9309;52.126;11.616;2023-09-19T05:59:18;16.30;67.80
18365;DHT22;9309;52.126;11.616;2023-09-19T06:01:44;16.40;68.00
18365;DHT22;9309;52.126;11.616;2023-09-19T06:04:12;16.50;67.70
18365;DHT22;9309;52.126;11.616;2023-09-19T06:06:39;16.50;67.50
18365;DHT22;9309;52.126;11.616;2023-09-19T06:09:06;16.40;67.50
18365;DHT22;9309;52.126;11.616;2023-09-19T06:11:33;16.40;67.80
18365;DHT22;9309;52.126;11.616;2023-09-19T06:14:00;16.50;67.80
18365;DHT22;9309;52.126;11.616;2023-09-19T06:16:27;16.40;67.60
18365;DHT22;9309;52.126;11.616;2023-09-19T06:18:54;16.30;68.10
18365;DHT22;9309;52.126;11.616;2023-09-19T06:21:22;16.40;68.00
18365;DHT22;9309;52.126;11.616;2023-09-19T06:23:49;16.40;67.50
18365;DHT22;9309;52.126;11.616;2023-09-19T06:26:15;16.30;67.70
18365;DHT22;9309;52.126;11.616;2023-09-19T06:28:42;16.30;67.50
18365;DHT22;9309;52.126;11.616;2023-09-19T06:31:09;16.40;67.70
18365;DHT22;9309;52.126;11.616;2023-09-19T06:33:36;16.40;67.40
18365;DHT22;9309;52.126;11.616;2023-09-19T06:36:04;16.40;67.30
18365;DHT22;9309;52.126;11.616;2023-09-19T06:38:32;16.30;67.50
18365;DHT22;9309;52.126;11.616;2023-09-19T06:41:00;16.30;67.10
18365;DHT22;9309;52.126;11.616;2023-09-19T06:43:29;16.30;67.20
18365;DHT22;9309;52.126;11.616;2023-09-19T06:45:57;16.30;67.30
18365;DHT22;9309;52.126;11.616;2023-09-19T06:48:23;16.40;67.00
18365;DHT22;9309;52.126;11.616;2023-09-19T06:50:52;16.30;67.20
18365;DHT22;9309;52.126;11.616;2023-09-19T06:53:20;16.30;66.90
18365;DHT22;9309;52.126;11.616;2023-09-19T06:55:50;16.30;67.20
18365;DHT22;9309;52.126;11.616;2023-09-19T06:58:17;16.30;67.20
18365;DHT22;9309;52.126;11.616;2023-09-19T07:00:44;16.30;67.70
18365;DHT22;9309;52.126;11.616;2023-09-19T07:03:12;16.30;67.80
18365;DHT22;9309;52.126;11.616;2023-09-19T07:05:40;16.30;67.70
18365;DHT22;9309;52.126;11.616;2023-09-19T07:08:08;16.20;67.80
18365;DHT22;9309;52.126;11.616;2023-09-19T07:10:36;16.30;68.20
18365;DHT22;9309;52.126;11.616;2023-09-19T07:13:04;16.20;68.10
18365;DHT22;9309;52.126;11.616;2023-09-19T07:15:34;16.20;68.50
18365;DHT22;9309;52.126;11.616;2023-09-19T07:18:04;16.20;68.30
18365;DHT22;9309;52.126;11.616;2023-09-19T07:20:31;16.20;68.20
18365;DHT22;9309;52.126;11.616;2023-09-19T07:22:59;16.20;68.00
18365;DHT22;9309;52.126;11.616;2023-09-19T07:25:26;16.10;68.00
18365;DHT22;9309;52.126;11.616;2023-09-19T07:27:54;16.10;66.90
18365;DHT22;9309;52.126;11.616;2023-09-19T07:30:22;16.30;66.00
18365;DHT22;9309;52.126;11.616;2023-09-19T07:32:49;16.40;64.50
18365;DHT22;9309;52.126;11.616;2023-09-19T07:35:16;16.40;62.30
18365;DHT22;9309;52.126;11.616;2023-09-19T07:37:44;16.50;61.60
18365;DHT22;9309;52.126;11.616;2023-09-19T07:40:14;16.50;60.60
18365;DHT22;9309;52.126;11.616;2023-09-19T07:42:41;16.60;60.60
18365;DHT22;9309;52.126;11.616;2023-09-19T07:45:10;16.60;60.90
18365;DHT22;9309;52.126;11.616;2023-09-19T07:47:43;16.70;60.40
18365;DHT22;9309;52.126;11.616;2023-09-19T07:50:10;16.80;60.20
18365;DHT22;9309;52.126;11.616;2023-09-19T07:52:36;16.90;59.30
18365;DHT22;9309;52.126;11.616;2023-09-19T07:55:04;16.90;58.00
18365;DHT22;9309;52.126;11.616;2023-09-19T07:57:34;16.90;57.70
18365;DHT22;9309;52.126;11.616;2023-09-19T08:00:01;17.00;57.40
18365;DHT22;9309;52.126;11.616;2023-09-19T08:02:37;17.10;57.00
18365;DHT22;9309;52.126;11.616;2023-09-19T08:05:05;17.20;56.90
18365;DHT22;9309;52.126;11.616;2023-09-19T08:07:35;17.30;56.20
18365;DHT22;9309;52.126;11.616;2023-09-19T08:10:02;17.40;56.00
18365;DHT22;9309;52.126;11.616;2023-09-19T08:12:28;17.30;55.50
18365;DHT22;9309;52.126;11.616;2023-09-19T08:14:55;17.30;55.30
18365;DHT22;9309;52.126;11.616;2023-09-19T08:17:22;17.40;54.80
18365;DHT22;9309;52.126;11.616;2023-09-19T08:19:49;17.50;55.10
18365;DHT22;9309;52.126;11.616;2023-09-19T08:22:19;17.70;55.30
18365;DHT22;9309;52.126;11.616;2023-09-19T08:24:47;17.70;54.60
18365;DHT22;9309;52.126;11.616;2023-09-19T08:27:13;17.80;54.50
18365;DHT22;9309;52.126;11.616;2023-09-19T08:29:40;17.90;53.60
18365;DHT22;9309;52.126;11.616;2023-09-19T08:32:07;18.00;53.20
18365;DHT22;9309;52.126;11.616;2023-09-19T08:34:34;17.90;52.70
18365;DHT22;9309;52.126;11.616;2023-09-19T08:37:03;17.90;53.00
18365;DHT22;9309;52.126;11.616;2023-09-19T08:39:31;18.00;53.50
18365;DHT22;9309;52.126;11.616;2023-09-19T08:42:01;18.10;53.10
18365;DHT22;9309;52.126;11.616;2023-09-19T08:44:28;17.90;53.00
18365;DHT22;9309;52.126;11.616;2023-09-19T08:46:57;17.90;52.50
18365;DHT22;9309;52.126;11.616;2023-09-19T08:49:27;18.10;52.10
18365;DHT22;9309;52.126;11.616;2023-09-19T08:51:59;18.20;52.10
18365;DHT22;9309;52.126;11.616;2023-09-19T08:54:28;18.30;51.90
18365;DHT22;9309;52.126;11.616;2023-09-19T08:56:58;18.20;52.40
18365;DHT22;9309;52.126;11.616;2023-09-19T08:59:27;18.20;52.30
18365;DHT22;9309;52.126;11.616;2023-09-19T09:01:55;18.30;52.10
18365;DHT22;9309;52.126;11.616;2023-09-19T09:04:22;18.40;51.70
18365;DHT22;9309;52.126;11.616;2023-09-19T09:06:49;18.40;50.50
18365;DHT22;9309;52.126;11.616;2023-09-19T09:09:18;18.40;50.20
18365;DHT22;9309;52.126;11.616;2023-09-19T09:11:46;18.30;50.00
18365;DHT22;9309;52.126;11.616;2023-09-19T09:14:16;18.30;50.30
18365;DHT22;9309;52.126;11.616;2023-09-19T09:16:43;18.30;50.20
18365;DHT22;9309;52.126;11.616;2023-09-19T09:19:10;18.40;50.20
18365;DHT22;9309;52.126;11.616;2023-09-19T09:21:39;18.40;50.20
18365;DHT22;9309;52.126;11.616;2023-09-19T09:26:51;18.60;49.20
18365;DHT22;9309;52.126;11.616;2023-09-19T09:29:21;18.50;48.90
18365;DHT22;9309;52.126;11.616;2023-09-19T09:32:16;18.40;48.90
18365;DHT22;9309;52.126;11.616;2023-09-19T09:34:43;18.40;49.40
18365;DHT22;9309;52.126;11.616;2023-09-19T09:37:12;18.50;50.10
18365;DHT22;9309;52.126;11.616;2023-09-19T09:39:40;18.60;49.80
18365;DHT22;9309;52.126;11.616;2023-09-19T09:42:15;18.70;49.20
18365;DHT22;9309;52.126;11.616;2023-09-19T09:45:09;18.80;49.00
18365;DHT22;9309;52.126;11.616;2023-09-19T09:47:42;19.00;49.00
18365;DHT22;9309;52.126;11.616;2023-09-19T09:50:28;19.10;49.10
18365;DHT22;9309;52.126;11.616;2023-09-19T09:53:05;19.00;49.70
18365;DHT22;9309;52.126;11.616;2023-09-19T09:55:57;19.20;49.00
18365;DHT22;9309;52.126;11.616;2023-09-19T09:58:24;19.20;49.20
18365;DHT22;9309;52.126;11.616;2023-09-19T10:00:56;19.30;49.00
18365;DHT22;9309;52.126;11.616;2023-09-19T10:03:33;19.40;49.10
18365;DHT22;9309;52.126;11.616;2023-09-19T10:06:04;19.50;49.20
18365;DHT22;9309;52.126;11.616;2023-09-19T10:08:57;19.50;48.10
18365;DHT22;9309;52.126;11.616;2023-09-19T10:11:26;19.30;48.30
18365;DHT22;9309;52.126;11.616;2023-09-19T10:13:55;19.10;48.10
18365;DHT22;9309;52.126;11.616;2023-09-19T10:16:23;18.90;49.60
18365;DHT22;9309;52.126;11.616;2023-09-19T10:18:51;19.00;49.30
18365;DHT22;9309;52.126;11.616;2023-09-19T10:21:20;19.10;48.60
18365;DHT22;9309;52.126;11.616;2023-09-19T10:23:48;19.10;48.60
18365;DHT22;9309;52.126;11.616;2023-09-19T10:26:17;19.20;48.80
18365;DHT22;9309;52.126;11.616;2023-09-19T10:28:45;19.40;48.70
18365;DHT22;9309;52.126;11.616;2023-09-19T10:31:13;19.60;48.80
18365;DHT22;9309;52.126;11.616;2023-09-19T10:33:46;19.60;48.10
18365;DHT22;9309;52.126;11.616;2023-09-19T10:36:14;19.40;48.00
18365;DHT22;9309;52.126;11.616;2023-09-19T10:38:42;19.40;48.20
18365;DHT22;9309;52.126;11.616;2023-09-19T10:41:09;19.40;47.70
18365;DHT22;9309;52.126;11.616;2023-09-19T10:43:36;19.30;48.30
18365;DHT22;9309;52.126;11.616;2023-09-19T10:46:07;19.60;47.50
18365;DHT22;9309;52.126;11.616;2023-09-19T10:48:36;19.80;47.40
18365;DHT22;9309;52.126;11.616;2023-09-19T10:51:06;20.10;45.90
18365;DHT22;9309;52.126;11.616;2023-09-19T10:53:40;20.50;45.30
18365;DHT22;9309;52.126;11.616;2023-09-19T10:56:07;20.90;43.60
18365;DHT22;9309;52.126;11.616;2023-09-19T10:58:42;21.30;43.60
18365;DHT22;9309;52.126;11.616;2023-09-19T11:01:10;22.00;41.30
18365;DHT22;9309;52.126;11.616;2023-09-19T11:03:38;22.50;40.30
18365;DHT22;9309;52.126;11.616;2023-09-19T11:06:13;22.20;40.70
18365;DHT22;9309;52.126;11.616;2023-09-19T11:08:55;22.60;40.40
18365;DHT22;9309;52.126;11.616;2023-09-19T11:11:45;23.00;39.30
18365;DHT22;9309;52.126;11.616;2023-09-19T11:14:28;22.90;40.00
18365;DHT22;9309;52.126;11.616;2023-09-19T11:22:24;23.30;39.10
18365;DHT22;9309;52.126;11.616;2023-09-19T11:24:52;23.10;39.50
18365;DHT22;9309;52.126;11.616;2023-09-19T11:27:21;23.60;39.10
18365;DHT22;9309;52.126;11.616;2023-09-19T11:29:52;23.40;39.50
18365;DHT22;9309;52.126;11.616;2023-09-19T11:35:20;22.40;41.00
18365;DHT22;9309;52.126;11.616;2023-09-19T11:40:38;22.10;41.60
18365;DHT22;9309;52.126;11.616;2023-09-19T11:48:47;23.20;40.30
18365;DHT22;9309;52.126;11.616;2023-09-19T11:51:15;23.70;39.40
18365;DHT22;9309;52.126;11.616;2023-09-19T11:53:45;23.90;38.20
18365;DHT22;9309;52.126;11.616;2023-09-19T11:56:14;23.60;38.70
18365;DHT22;9309;52.126;11.616;2023-09-19T11:58:43;23.10;39.70
18365;DHT22;9309;52.126;11.616;2023-09-19T12:01:10;22.80;40.30
18365;DHT22;9309;52.126;11.616;2023-09-19T12:03:41;22.90;39.80
18365;DHT22;9309;52.126;11.616;2023-09-19T12:06:11;22.90;39.20
18365;DHT22;9309;52.126;11.616;2023-09-19T12:08:40;22.90;39.90
18365;DHT22;9309;52.126;11.616;2023-09-19T12:11:11;22.90;40.20
18365;DHT22;9309;52.126;11.616;2023-09-19T12:13:42;22.50;40.80
18365;DHT22;9309;52.126;11.616;2023-09-19T12:16:13;22.50;40.20
18365;DHT22;9309;52.126;11.616;2023-09-19T12:18:41;22.70;39.30
18365;DHT22;9309;52.126;11.616;2023-09-19T12:21:25;22.60;39.50
18365;DHT22;9309;52.126;11.616;2023-09-19T12:23:56;22.50;39.50
18365;DHT22;9309;52.126;11.616;2023-09-19T12:26:23;22.50;39.10
18365;DHT22;9309;52.126;11.616;2023-09-19T12:28:51;22.10;40.10
18365;DHT22;9309;52.126;11.616;2023-09-19T12:31:20;21.90;40.70
18365;DHT22;9309;52.126;11.616;2023-09-19T12:33:46;21.70;41.40
18365;DHT22;9309;52.126;11.616;2023-09-19T12:36:19;22.10;40.60
18365;DHT22;9309;52.126;11.616;2023-09-19T12:38:50;22.10;41.30
18365;DHT22;9309;52.126;11.616;2023-09-19T12:41:18;22.00;41.00
18365;DHT22;9309;52.126;11.616;2023-09-19T12:43:46;21.80;41.00
18365;DHT22;9309;52.126;11.616;2023-09-19T12:46:14;22.10;40.40
18365;DHT22;9309;52.126;11.616;2023-09-19T12:48:45;22.40;39.70
18365;DHT22;9309;52.126;11.616;2023-09-19T12:51:13;22.20;39.20
18365;DHT22;9309;52.126;11.616;2023-09-19T12:53:41;22.30;39.20
18365;DHT22;9309;52.126;11.616;2023-09-19T12:56:09;22.40;38.60
18365;DHT22;9309;52.126;11.616;2023-09-19T13:01:21;22.80;37.80
18365;DHT22;9309;52.126;11.616;2023-09-19T13:06:35;23.30;36.80
18365;DHT22;9309;52.126;11.616;2023-09-19T13:09:07;23.00;37.50
18365;DHT22;9309;52.126;11.616;2023-09-19T13:11:35;23.10;37.70
18365;DHT22;9309;52.126;11.616;2023-09-19T13:14:14;22.50;38.50
18365;DHT22;9309;52.126;11.616;2023-09-19T13:16:53;22.30;38.30
18365;DHT22;9309;52.126;11.616;2023-09-19T13:19:34;22.10;38.50
18365;DHT22;9309;52.126;11.616;2023-09-19T13:22:01;21.90;39.50
18365;DHT22;9309;52.126;11.616;2023-09-19T13:24:28;22.30;39.40
18365;DHT22;9309;52.126;11.616;2023-09-19T13:26:56;22.70;39.00
18365;DHT22;9309;52.126;11.616;2023-09-19T13:29:22;22.80;39.00
18365;DHT22;9309;52.126;11.616;2023-09-19T13:31:49;23.00;39.10
18365;DHT22;9309;52.126;11.616;2023-09-19T13:34:18;22.90;38.90
18365;DHT22;9309;52.126;11.616;2023-09-19T13:36:46;22.50;39.60
18365;DHT22;9309;52.126;11.616;2023-09-19T13:39:13;22.60;40.10
18365;DHT22;9309;52.126;11.616;2023-09-19T13:41:40;22.80;40.30
18365;DHT22;9309;52.126;11.616;2023-09-19T13:44:08;23.10;39.00
18365;DHT22;9309;52.126;11.616;2023-09-19T13:46:36;22.80;39.10
18365;DHT22;9309;52.126;11.616;2023-09-19T13:49:02;22.60;39.30
18365;DHT22;9309;52.126;11.616;2023-09-19T13:51:31;22.50;39.80
18365;DHT22;9309;52.126;11.616;2023-09-19T13:53:58;22.00;40.80
18365;DHT22;9309;52.126;11.616;2023-09-19T13:56:25;22.10;40.80
18365;DHT22;9309;52.126;11.616;2023-09-19T13:58:53;21.90;40.70
18365;DHT22;9309;52.126;11.616;2023-09-19T14:01:20;21.70;41.30
18365;DHT22;9309;52.126;11.616;2023-09-19T14:03:46;21.70;41.90
18365;DHT22;9309;52.126;11.616;2023-09-19T14:06:15;21.70;41.30
18365;DHT22;9309;52.126;11.616;2023-09-19T14:08:43;21.50;41.50
18365;DHT22;9309;52.126;11.616;2023-09-19T14:11:12;21.20;41.80
18365;DHT22;9309;52.126;11.616;2023-09-19T14:13:39;21.10;41.70
18365;DHT22;9309;52.126;11.616;2023-09-19T14:16:06;21.00;42.00
18365;DHT22;9309;52.126;11.616;2023-09-19T14:18:34;21.00;41.90
18365;DHT22;9309;52.126;11.616;2023-09-19T14:21:02;20.90;42.40
18365;DHT22;9309;52.126;11.616;2023-09-19T14:23:30;20.90;42.50
18365;DHT22;9309;52.126;11.616;2023-09-19T14:26:01;21.00;42.10
18365;DHT22;9309;52.126;11.616;2023-09-19T14:28:28;21.10;42.40
18365;DHT22;9309;52.126;11.616;2023-09-19T14:30:55;21.10;43.80
18365;DHT22;9309;52.126;11.616;2023-09-19T14:33:22;21.00;42.50
18365;DHT22;9309;52.126;11.616;2023-09-19T14:35:48;20.90;42.20
18365;DHT22;9309;52.126;11.616;2023-09-19T14:38:15;21.00;41.90
18365;DHT22;9309;52.126;11.616;2023-09-19T14:40:42;21.00;41.90
18365;DHT22;9309;52.126;11.616;2023-09-19T14:43:10;21.10;42.20
18365;DHT22;9309;52.126;11.616;2023-09-19T14:45:37;20.90;42.30
18365;DHT22;9309;52.126;11.616;2023-09-19T14:48:03;21.00;42.10
18365;DHT22;9309;52.126;11.616;2023-09-19T14:50:30;21.10;42.50
18365;DHT22;9309;52.126;11.616;2023-09-19T14:52:58;21.30;42.80
18365;DHT22;9309;52.126;11.616;2023-09-19T14:55:27;21.30;42.00
18365;DHT22;9309;52.126;11.616;2023-09-19T14:57:55;21.20;42.60
18365;DHT22;9309;52.126;11.616;2023-09-19T15:00:25;21.20;42.40
18365;DHT22;9309;52.126;11.616;2023-09-19T15:02:52;21.40;42.00
18365;DHT22;9309;52.126;11.616;2023-09-19T15:05:21;21.50;41.40
18365;DHT22;9309;52.126;11.616;2023-09-19T15:07:48;21.40;41.90
18365;DHT22;9309;52.126;11.616;2023-09-19T15:10:15;21.50;42.50
18365;DHT22;9309;52.126;11.616;2023-09-19T15:12:43;21.50;42.60
18365;DHT22;9309;52.126;11.616;2023-09-19T15:15:10;21.40;41.50
18365;DHT22;9309;52.126;11.616;2023-09-19T15:17:39;21.10;40.90
18365;DHT22;9309;52.126;11.616;2023-09-19T15:20:07;21.00;41.70
18365;DHT22;9309;52.126;11.616;2023-09-19T15:22:33;21.00;41.60
18365;DHT22;9309;52.126;11.616;2023-09-19T15:25:01;21.00;42.00
18365;DHT22;9309;52.126;11.616;2023-09-19T15:27:29;21.00;41.70
18365;DHT22;9309;52.126;11.616;2023-09-19T15:29:56;21.00;42.10
18365;DHT22;9309;52.126;11.616;2023-09-19T15:32:23;21.00;41.70
18365;DHT22;9309;52.126;11.616;2023-09-19T15:34:51;21.00;41.90
18365;DHT22;9309;52.126;11.616;2023-09-19T15:37:18;20.90;42.50
18365;DHT22;9309;52.126;11.616;2023-09-19T15:39:44;20.80;43.20
18365;DHT22;9309;52.126;11.616;2023-09-19T15:42:11;20.90;43.00
18365;DHT22;9309;52.126;11.616;2023-09-19T15:44:38;21.00;43.10
18365;DHT22;9309;52.126;11.616;2023-09-19T15:47:05;20.90;43.00
18365;DHT22;9309;52.126;11.616;2023-09-19T15:49:32;20.90;43.10
18365;DHT22;9309;52.126;11.616;2023-09-19T15:52:00;20.80;43.30
18365;DHT22;9309;52.126;11.616;2023-09-19T15:54:26;20.70;43.60
18365;DHT22;9309;52.126;11.616;2023-09-19T15:56:54;20.60;43.80
18365;DHT22;9309;52.126;11.616;2023-09-19T15:59:21;20.60;44.40
18365;DHT22;9309;52.126;11.616;2023-09-19T16:01:48;20.50;44.50
18365;DHT22;9309;52.126;11.616;2023-09-19T16:04:16;20.50;44.70